Time;durP1;ratioP1;P1;durP2;ratioP2;P2;SDS_P1;SDS_P2;PMS_P1;PMS_P2;Temp;Humidity;BMP_temperature;BMP_pressure;BME280_temperature;BME280_humidity;BME280_pressure;Samples;Min_cycle;Max_cycle;Signal;HPM_P1;HPM_P2
2022/10/24 00:01:52;;;;;;;11.93;7.15;;;;;;;9.94;100.00;99553.92;1697947;83;21407;-70
2022/10/24 00:04:20;;;;;;;13.55;7.15;;;;;;;9.92;100.00;99542.45;1723479;83;21497;-70
2022/10/24 00:06:55;;;;;;;16.48;7.58;;;;;;;9.92;100.00;99551.48;1688149;84;21003;-70
2022/10/24 00:09:28;;;;;;;16.73;7.40;;;;;;;9.92;100.00;99550.12;1687154;84;21378;-70
2022/10/24 00:12:01;;;;;;;16.82;7.25;;;;;;;9.90;100.00;99548.25;1687527;84;20888;-70
2022/10/24 00:14:33;;;;;;;11.93;8.03;;;;;;;9.88;100.00;99547.75;1689483;84;20995;-69
2022/10/24 00:17:06;;;;;;;11.00;7.37;;;;;;;9.88;100.00;99546.38;1687989;83;20983;-71
2022/10/24 00:19:35;;;;;;;16.07;7.83;;;;;;;9.86;100.00;99544.50;1688776;83;20928;-71
2022/10/24 00:22:03;;;;;;;17.87;7.95;;;;;;;9.84;100.00;99540.45;1688507;84;21129;-72
2022/10/24 00:24:33;;;;;;;17.00;7.90;;;;;;;9.80;100.00;99537.55;1687093;84;21419;-72
2022/10/24 00:27:03;;;;;;;18.17;7.85;;;;;;;9.75;100.00;99534.93;1689101;84;21542;-72
2022/10/24 00:29:35;;;;;;;14.13;7.28;;;;;;;9.70;100.00;99536.42;1685433;84;20911;-72
2022/10/24 00:32:08;;;;;;;14.65;7.55;;;;;;;9.67;100.00;99537.04;1711417;82;20852;-70
2022/10/24 00:34:40;;;;;;;20.50;9.10;;;;;;;9.61;100.00;99530.05;1705660;83;20923;-71
2022/10/24 00:37:11;;;;;;;13.28;7.70;;;;;;;9.58;100.00;99532.04;1712108;82;21097;-69
2022/10/24 00:39:42;;;;;;;16.02;9.33;;;;;;;9.53;100.00;99537.64;1688925;84;20940;-69
2022/10/24 00:42:12;;;;;;;15.68;9.95;;;;;;;9.50;100.00;99534.14;1683263;84;21059;-69
2022/10/24 00:44:45;;;;;;;20.37;9.20;;;;;;;9.47;100.00;99533.39;1654902;86;20992;-69
2022/10/24 00:47:17;;;;;;;18.90;9.63;;;;;;;9.45;100.00;99534.26;1643370;86;20872;-70
2022/10/24 00:50:13;;;;;;;18.25;10.00;;;;;;;9.44;100.00;99531.27;1683931;84;20872;-69
2022/10/24 00:52:46;;;;;;;15.58;9.43;;;;;;;9.43;100.00;99537.87;1699592;82;20895;-69
2022/10/24 00:55:13;;;;;;;19.62;11.55;;;;;;;9.41;100.00;99534.06;1691201;84;20928;-69
2022/10/24 00:57:53;;;;;;;19.15;11.18;;;;;;;9.44;100.00;99536.19;1688150;84;20956;-69
2022/10/24 01:00:28;;;;;;;24.25;12.13;;;;;;;9.47;100.00;99537.50;1689196;84;21787;-69
2022/10/24 01:02:59;;;;;;;19.00;10.38;;;;;;;9.47;100.00;99530.65;1669652;84;20936;-69
2022/10/24 01:05:29;;;;;;;16.45;9.30;;;;;;;9.49;100.00;99542.92;1687796;84;21596;-69
2022/10/24 01:08:40;;;;;;;16.60;9.65;;;;;;;9.49;100.00;99533.33;1692902;83;21580;-69
2022/10/24 01:11:28;;;;;;;20.80;10.77;;;;;;;9.49;100.00;99532.52;1708551;82;20863;-69
2022/10/24 01:14:28;;;;;;;16.93;9.65;;;;;;;9.48;100.00;99533.64;1713501;83;21660;-69
2022/10/24 01:17:31;;;;;;;18.85;10.43;;;;;;;9.46;100.00;99535.87;1715548;82;20939;-69
2022/10/24 01:20:39;;;;;;;16.62;9.63;;;;;;;9.45;100.00;99539.73;1722052;82;21062;-69
2022/10/24 01:23:30;;;;;;;21.93;10.28;;;;;;;9.43;100.00;99529.09;1685596;83;20971;-70
2022/10/24 01:26:20;;;;;;;34.38;21.52;;;;;;;9.45;100.00;99542.48;1698870;82;20908;-70
2022/10/24 01:29:25;;;;;;;19.75;12.58;;;;;;;9.47;100.00;99545.16;1704755;82;21814;-70
2022/10/24 01:31:56;;;;;;;21.37;10.85;;;;;;;9.49;100.00;99544.85;1688046;82;21415;-71
2022/10/24 01:34:38;;;;;;;22.13;10.72;;;;;;;9.52;100.00;99541.50;1712828;82;20970;-71
2022/10/24 01:37:21;;;;;;;16.15;10.28;;;;;;;9.53;100.00;99537.64;1711886;83;20888;-70
2022/10/24 01:39:50;;;;;;;18.30;10.65;;;;;;;9.54;100.00;99542.00;1694119;83;20868;-70
2022/10/24 01:42:20;;;;;;;18.30;9.95;;;;;;;9.57;100.00;99541.38;1722432;83;21818;-70
2022/10/24 01:44:49;;;;;;;22.48;10.70;;;;;;;9.57;100.00;99543.56;1718806;83;20978;-70
2022/10/24 01:47:35;;;;;;;16.17;9.83;;;;;;;9.58;100.00;99539.70;1720515;83;20895;-70
2022/10/24 01:50:10;;;;;;;17.92;10.88;;;;;;;9.58;100.00;99538.89;1698398;83;21466;-70
2022/10/24 01:52:43;;;;;;;17.42;10.23;;;;;;;9.59;100.00;99541.89;1720277;83;20884;-70
2022/10/24 01:55:12;;;;;;;16.75;9.18;;;;;;;9.60;100.00;99544.88;1715828;83;21086;-70
2022/10/24 01:57:45;;;;;;;18.67;10.32;;;;;;;9.62;100.00;99549.48;1722293;83;20926;-70
2022/10/24 02:00:22;;;;;;;18.90;9.90;;;;;;;9.64;100.00;99546.44;1727195;83;21525;-69
2022/10/24 02:02:57;;;;;;;21.40;11.73;;;;;;;9.66;100.00;99542.83;1711630;83;20983;-69
2022/10/24 02:05:26;;;;;;;;;;;;;;;9.70;100.00;99540.53;1717719;83;20942;-70
2022/10/24 02:08:06;;;;;;;21.82;11.08;;;;;;;9.72;100.00;99542.96;1715002;83;21158;-69
2022/10/24 02:10:43;;;;;;;19.02;10.45;;;;;;;9.73;100.00;99544.58;1719280;83;21458;-69
2022/10/24 02:13:25;;;;;;;27.10;11.33;;;;;;;9.76;100.00;99551.63;1721659;83;21477;-70
2022/10/24 02:15:55;;;;;;;18.50;11.10;;;;;;;9.77;100.00;99549.14;1712055;83;20908;-70
2022/10/24 02:18:28;;;;;;;18.92;10.58;;;;;;;9.81;100.00;99549.33;1714746;83;20972;-70
2022/10/24 02:21:13;;;;;;;17.50;10.23;;;;;;;9.81;100.00;99543.84;1714739;83;21483;-70
2022/10/24 02:24:03;;;;;;;18.70;10.23;;;;;;;9.83;100.00;99546.50;1719165;83;21117;-70
2022/10/24 02:26:32;;;;;;;18.80;10.03;;;;;;;9.85;100.00;99552.48;1713743;83;21572;-70
2022/10/24 02:29:05;;;;;;;18.50;10.95;;;;;;;9.85;100.00;99555.22;1713679;83;21005;-70
2022/10/24 02:31:39;;;;;;;23.18;11.53;;;;;;;9.87;100.00;99554.35;1713191;83;20987;-71
2022/10/24 02:34:07;;;;;;;19.07;11.20;;;;;;;9.87;100.00;99552.98;1694284;83;20939;-70
2022/10/24 02:36:38;;;;;;;17.85;11.05;;;;;;;9.89;100.00;99552.67;1686181;83;20907;-70
2022/10/24 02:39:11;;;;;;;21.52;11.60;;;;;;;9.92;100.00;99557.53;1692186;83;20872;-70
2022/10/24 02:41:44;;;;;;;19.27;11.68;;;;;;;9.92;100.00;99559.71;1725705;82;20994;-69
2022/10/24 02:44:14;;;;;;;18.75;10.40;;;;;;;9.94;100.00;99557.47;1718902;83;21038;-70
2022/10/24 02:46:45;;;;;;;25.23;10.72;;;;;;;9.97;100.00;99559.34;1722451;82;26962;-69
2022/10/24 02:49:23;;;;;;;18.65;11.80;;;;;;;9.97;100.00;99560.16;1716704;83;20919;-70
2022/10/24 02:51:50;;;;;;;17.20;11.45;;;;;;;9.97;100.00;99557.97;1720406;83;21030;-70
2022/10/24 02:54:18;;;;;;;19.62;10.82;;;;;;;9.98;100.00;99559.59;1723065;83;20947;-70
2022/10/24 02:56:58;;;;;;;20.10;11.20;;;;;;;9.99;100.00;99563.95;1713495;83;20927;-70
2022/10/24 02:59:28;;;;;;;18.87;11.48;;;;;;;9.98;100.00;99558.22;1713360;83;20887;-69
2022/10/24 03:01:58;;;;;;;21.50;12.55;;;;;;;9.99;100.00;99557.10;1711576;83;21450;-69
2022/10/24 03:04:26;;;;;;;21.65;12.78;;;;;;;10.01;100.00;99554.86;1689578;83;20976;-69
2022/10/24 03:06:55;;;;;;;23.75;13.65;;;;;;;10.01;100.00;99558.41;1716687;83;21526;-69
2022/10/24 03:09:22;;;;;;;23.05;13.75;;;;;;;10.01;100.00;99554.30;1724833;82;20934;-70
2022/10/24 03:11:52;;;;;;;24.20;13.68;;;;;;;9.99;100.00;99552.42;1723872;82;21161;-70
2022/10/24 03:14:25;;;;;;;24.77;13.25;;;;;;;9.97;100.00;99555.23;1727200;82;20994;-69
2022/10/24 03:16:55;;;;;;;24.00;13.93;;;;;;;9.95;100.00;99550.05;1724900;82;20939;-70
2022/10/24 03:19:26;;;;;;;22.80;13.65;;;;;;;9.93;100.00;99550.92;1716338;82;21002;-69
2022/10/24 03:21:58;;;;;;;25.10;13.98;;;;;;;9.90;100.00;99555.10;1711832;83;21510;-69
2022/10/24 03:24:32;;;;;;;27.27;14.03;;;;;;;9.90;100.00;99558.41;1718102;83;21113;-69
2022/10/24 03:26:58;;;;;;;23.73;14.03;;;;;;;9.87;100.00;99558.46;1719186;83;20991;-69
2022/10/24 03:29:33;;;;;;;31.55;15.05;;;;;;;9.87;100.00;99563.95;1701377;83;21446;-70
2022/10/24 03:32:02;;;;;;;27.37;14.98;;;;;;;9.88;100.00;99570.24;1725379;82;21086;-70
2022/10/24 03:34:29;;;;;;;25.20;14.70;;;;;;;9.88;100.00;99564.76;1718954;83;21050;-71
2022/10/24 03:37:03;;;;;;;28.05;15.28;;;;;;;9.88;100.00;99568.88;1719668;83;21483;-70
2022/10/24 03:39:33;;;;;;;23.30;13.38;;;;;;;9.90;100.00;99571.55;1716184;83;20986;-70
2022/10/24 03:42:07;;;;;;;;;;;;;;;9.92;100.00;99578.91;1724949;82;20958;-70
2022/10/24 03:44:31;;;;;;;25.05;15.20;;;;;;;9.93;100.00;99579.16;1715844;83;20114;-70
2022/10/24 03:47:06;;;;;;;30.50;15.43;;;;;;;9.94;100.00;99581.34;1722189;83;20995;-70
2022/10/24 03:49:35;;;;;;;26.80;16.37;;;;;;;9.94;100.00;99578.04;1720511;83;21092;-70
2022/10/24 03:52:03;;;;;;;27.73;17.65;;;;;;;9.94;100.00;99576.66;1722029;82;20895;-69
2022/10/24 03:54:34;;;;;;;32.13;17.32;;;;;;;9.96;100.00;99585.14;1722126;83;20982;-70
2022/10/24 03:57:04;;;;;;;29.43;17.50;;;;;;;9.96;100.00;99579.10;1722206;82;20943;-70
2022/10/24 03:59:33;;;;;;;29.23;17.55;;;;;;;9.98;100.00;99578.79;1720936;82;20997;-69
2022/10/24 04:02:01;;;;;;;32.50;17.92;;;;;;;10.00;100.00;99584.77;1711775;83;21502;-70
2022/10/24 04:04:33;;;;;;;29.25;15.58;;;;;;;10.01;100.00;99572.13;1715498;83;20958;-70
2022/10/24 04:07:04;;;;;;;26.52;14.90;;;;;;;10.02;100.00;99576.48;1724495;83;20978;-70
2022/10/24 04:09:35;;;;;;;30.17;15.10;;;;;;;10.04;100.00;99581.66;1722019;82;20970;-70
2022/10/24 04:12:01;;;;;;;21.82;14.50;;;;;;;10.06;100.00;99573.94;1715965;82;20947;-70
2022/10/24 04:14:33;;;;;;;27.62;15.88;;;;;;;10.07;100.00;99574.99;1713667;83;21120;-71
2022/10/24 04:17:04;;;;;;;24.85;15.50;;;;;;;10.09;100.00;99578.80;1685944;83;20931;-71
2022/10/24 04:19:36;;;;;;;24.37;14.28;;;;;;;10.11;100.00;99577.36;1723670;82;21466;-71
2022/10/24 04:22:08;;;;;;;23.75;14.25;;;;;;;10.13;100.00;99577.05;1716863;82;20939;-70
2022/10/24 04:24:49;;;;;;;27.93;14.95;;;;;;;10.15;100.00;99578.92;1687877;84;20982;-69
2022/10/24 04:27:20;;;;;;;26.05;15.68;;;;;;;10.16;100.00;99575.05;1715307;83;21181;-69
2022/10/24 04:29:52;;;;;;;26.20;15.20;;;;;;;10.18;100.00;99574.19;1720792;83;21440;-70
2022/10/24 04:32:19;;;;;;;32.30;15.98;;;;;;;10.19;100.00;99566.20;1723323;82;21021;-73
2022/10/24 04:34:55;;;;;;;24.98;14.35;;;;;;;10.20;100.00;99565.11;1689506;84;21122;-72
2022/10/24 04:37:22;;;;;;;23.27;15.08;;;;;;;10.21;100.00;99573.03;1706574;82;21672;-71
2022/10/24 04:39:53;;;;;;;23.15;14.75;;;;;;;10.23;100.00;99573.53;1718198;82;21152;-70
2022/10/24 04:42:24;;;;;;;27.33;14.97;;;;;;;10.25;100.00;99576.77;1700169;83;21054;-71
2022/10/24 04:44:51;;;;;;;23.73;14.60;;;;;;;10.27;100.00;99572.34;1726672;82;21036;-70
2022/10/24 04:47:23;;;;;;;23.27;13.98;;;;;;;10.28;100.00;99578.08;1736132;81;20978;-70
2022/10/24 04:49:50;;;;;;;19.82;13.72;;;;;;;10.28;100.00;99575.34;1734952;81;20967;-72
2022/10/24 04:52:23;;;;;;;21.87;13.13;;;;;;;10.28;100.00;99564.92;1734193;82;22134;-72
2022/10/24 04:54:52;;;;;;;24.43;14.68;;;;;;;10.28;100.00;99573.96;1742779;82;20943;-72
2022/10/24 04:57:20;;;;;;;24.82;13.98;;;;;;;10.27;100.00;99576.45;1724276;82;21507;-72
2022/10/24 04:59:51;;;;;;;24.52;14.90;;;;;;;10.27;100.00;99587.43;1740771;82;20903;-72
2022/10/24 05:02:21;;;;;;;20.45;13.10;;;;;;;10.27;100.00;99587.43;1736467;81;21477;-71
2022/10/24 05:04:51;;;;;;;24.18;13.53;;;;;;;10.25;100.00;99585.56;1688523;84;22263;-72
2022/10/24 05:07:21;;;;;;;38.20;13.60;;;;;;;10.25;100.00;99586.94;1724762;82;20938;-72
2022/10/24 05:09:49;;;;;;;24.05;14.30;;;;;;;10.24;100.00;99593.55;1722574;82;20939;-72
2022/10/24 05:12:20;;;;;;;24.67;13.90;;;;;;;10.24;100.00;99594.91;1711083;83;20900;-69
2022/10/24 05:14:51;;;;;;;29.25;14.25;;;;;;;10.21;100.00;99591.42;1713866;82;20932;-70
2022/10/24 05:17:21;;;;;;;22.65;14.10;;;;;;;10.20;100.00;99595.28;1723645;82;21525;-68
2022/10/24 05:19:55;;;;;;;19.85;11.78;;;;;;;10.19;100.00;99600.49;1708581;82;20950;-66
2022/10/24 05:22:30;;;;;;;18.73;12.63;;;;;;;10.16;100.00;99594.26;1686713;84;20939;-67
2022/10/24 05:25:01;;;;;;;21.73;12.05;;;;;;;10.15;100.00;99607.16;1720993;82;21018;-69
2022/10/24 05:27:31;;;;;;;22.85;12.95;;;;;;;10.15;100.00;99603.61;1703029;82;20968;-70
2022/10/24 05:29:59;;;;;;;21.30;12.95;;;;;;;10.16;100.00;99601.12;1719467;82;21818;-69
2022/10/24 05:32:33;;;;;;;25.68;13.55;;;;;;;10.17;100.00;99602.17;1689223;84;20896;-68
2022/10/24 05:35:02;;;;;;;24.43;12.98;;;;;;;10.19;100.00;99604.61;1695703;83;21018;-70
2022/10/24 05:37:36;;;;;;;20.12;12.68;;;;;;;10.22;100.00;99605.39;1716766;83;21014;-69
2022/10/24 05:40:04;;;;;;;20.52;13.10;;;;;;;10.25;100.00;99604.77;1722942;82;21006;-71
2022/10/24 05:42:33;;;;;;;15.65;10.55;;;;;;;10.28;100.00;99612.37;1702435;83;21138;-69
2022/10/24 05:45:01;;;;;;;22.58;12.55;;;;;;;10.31;100.00;99614.49;1714732;82;20935;-72
2022/10/24 05:47:31;;;;;;;22.00;12.80;;;;;;;10.35;100.00;99614.12;1719398;82;21395;-72
2022/10/24 05:49:57;;;;;;;24.32;11.88;;;;;;;10.37;100.00;99615.98;1688985;83;20863;-71
2022/10/24 05:52:25;;;;;;;24.52;12.95;;;;;;;10.38;100.00;99612.13;1680387;84;20935;-71
2022/10/24 05:55:00;;;;;;;14.93;10.15;;;;;;;10.41;100.00;99610.09;1689267;83;21799;-75
2022/10/24 05:57:33;;;;;;;29.90;13.03;;;;;;;10.46;100.00;99609.97;1686487;83;20983;-69
2022/10/24 05:59:59;;;;;;;24.12;12.33;;;;;;;10.49;100.00;99620.32;1674395;84;20943;-69
2022/10/24 06:02:28;;;;;;;19.37;11.43;;;;;;;10.51;100.00;99615.33;1682549;83;20876;-71
2022/10/24 06:04:57;;;;;;;17.02;9.98;;;;;;;10.53;100.00;99620.50;1719490;82;20931;-71
2022/10/24 06:07:26;;;;;;;18.15;12.25;;;;;;;10.53;100.00;99618.57;1712846;83;21213;-71
2022/10/24 06:09:56;;;;;;;18.32;12.20;;;;;;;10.55;100.00;99623.19;1688679;83;21491;-70
2022/10/24 06:12:23;;;;;;;20.55;11.85;;;;;;;10.57;100.00;99628.36;1689521;84;21553;-73
2022/10/24 06:14:58;;;;;;;20.88;12.75;;;;;;;10.58;100.00;99633.54;1689925;84;20983;-70
2022/10/24 06:17:26;;;;;;;18.17;11.68;;;;;;;10.57;100.00;99638.78;1685507;84;20870;-70
2022/10/24 06:19:56;;;;;;;17.48;11.60;;;;;;;10.58;100.00;99643.71;1708501;83;21103;-72
2022/10/24 06:22:28;;;;;;;24.20;12.18;;;;;;;10.58;100.00;99637.66;1696667;83;20923;-72
2022/10/24 06:24:54;;;;;;;19.70;12.35;;;;;;;10.57;100.00;99636.59;1713284;83;20963;-73
2022/10/24 06:27:21;;;;;;;28.92;13.25;;;;;;;10.54;100.00;99645.46;1709616;83;21584;-75
2022/10/24 06:29:47;;;;;;;24.05;12.60;;;;;;;10.52;100.00;99646.33;1716438;82;20851;-73
2022/10/24 06:32:16;;;;;;;20.75;11.43;;;;;;;10.51;100.00;99640.03;1701408;81;21112;-79
2022/10/24 06:34:48;;;;;;;22.30;13.08;;;;;;;10.55;100.00;99647.89;1691953;83;20919;-79
2022/10/24 06:37:20;;;;;;;;;;;;;;;10.59;100.00;99652.19;1711442;83;21049;-79
2022/10/24 06:39:52;;;;;;;25.92;12.65;;;;;;;10.63;100.00;99648.27;1714967;82;20147;-79
2022/10/24 06:42:24;;;;;;;22.73;13.18;;;;;;;10.67;100.00;99650.63;1703665;83;21535;-79
2022/10/24 06:44:53;;;;;;;22.30;12.90;;;;;;;10.72;100.00;99646.38;1708085;83;21571;-80
2022/10/24 06:47:21;;;;;;;19.17;11.73;;;;;;;10.76;100.00;99648.75;1703031;82;21564;-77
2022/10/24 06:49:50;;;;;;;24.15;13.53;;;;;;;10.82;100.00;99649.67;1705865;82;21017;-73
2022/10/24 06:52:23;;;;;;;22.48;12.45;;;;;;;10.90;100.00;99649.48;1675798;83;21519;-70
2022/10/24 06:54:50;;;;;;;22.05;12.73;;;;;;;10.96;100.00;99646.84;1664974;84;21564;-70
2022/10/24 06:57:17;;;;;;;27.45;13.18;;;;;;;11.04;100.00;99645.23;1698637;82;21271;-69
2022/10/24 06:59:44;;;;;;;18.87;12.15;;;;;;;11.14;100.00;99651.83;1716364;82;20946;-74
2022/10/24 07:02:13;;;;;;;19.60;12.00;;;;;;;11.22;100.00;99651.86;1724056;82;20950;-71
2022/10/24 07:04:41;;;;;;;18.85;12.75;;;;;;;11.31;100.00;99647.77;1716989;82;21037;-72
2022/10/24 07:07:15;;;;;;;18.92;11.75;;;;;;;11.38;100.00;99645.94;1721668;82;20895;-72
2022/10/24 07:09:43;;;;;;;20.72;11.43;;;;;;;11.48;100.00;99653.90;1723931;82;21288;-70
2022/10/24 07:12:10;;;;;;;21.42;11.18;;;;;;;11.51;100.00;99660.13;1721309;82;21026;-70
2022/10/24 07:14:38;;;;;;;20.50;12.45;;;;;;;11.47;100.00;99651.71;1667901;85;20919;-68
2022/10/24 07:17:05;;;;;;;24.57;12.65;;;;;;;11.43;100.00;99655.42;1658944;85;21427;-70
2022/10/24 07:19:31;;;;;;;20.00;12.55;;;;;;;11.38;100.00;99651.44;1660492;85;21118;-74
2022/10/24 07:22:02;;;;;;;23.30;12.65;;;;;;;11.40;100.00;99657.42;1677223;84;21161;-74
2022/10/24 07:24:31;;;;;;;23.12;12.40;;;;;;;11.42;100.00;99655.17;1688596;83;21103;-73
2022/10/24 07:27:01;;;;;;;21.77;13.22;;;;;;;11.44;100.00;99657.84;1652463;85;20995;-74
2022/10/24 07:29:32;;;;;;;21.97;14.03;;;;;;;11.49;100.00;99652.77;1637975;86;21571;-76
2022/10/24 07:32:02;;;;;;;29.85;14.50;;;;;;;11.55;100.00;99652.87;1683902;84;21140;-75
2022/10/24 07:34:34;;;;;;;25.95;13.72;;;;;;;11.55;100.00;99654.24;1663130;83;21264;-76
2022/10/24 07:37:04;;;;;;;39.33;15.50;;;;;;;11.58;100.00;99653.01;1669910;85;20899;-76
2022/10/24 07:39:36;;;;;;;25.77;14.30;;;;;;;11.63;100.00;99649.87;1679387;85;20916;-75
2022/10/24 07:42:07;;;;;;;29.12;14.95;;;;;;;11.66;100.00;99651.41;1667521;83;21595;-75
2022/10/24 07:44:38;;;;;;;30.48;15.60;;;;;;;11.68;100.00;99655.22;1716768;81;20864;-75
2022/10/24 07:47:08;;;;;;;28.20;16.00;;;;;;;11.69;100.00;99654.89;1717891;81;21155;-76
2022/10/24 07:49:37;;;;;;;34.10;17.80;;;;;;;11.69;100.00;99655.46;1693241;82;20950;-74
2022/10/24 07:52:07;;;;;;;29.60;15.63;;;;;;;11.72;100.00;99654.26;1723895;81;21003;-70
2022/10/24 07:54:37;;;;;;;34.40;15.20;;;;;;;11.75;100.00;99653.62;1683751;84;21025;-72
2022/10/24 07:57:04;;;;;;;37.45;17.42;;;;;;;11.73;100.00;99659.19;1731597;82;20991;-71
2022/10/24 07:59:31;;;;;;;31.60;15.25;;;;;;;11.68;100.00;99660.16;1676262;84;21797;-74
2022/10/24 08:02:01;;;;;;;27.02;15.08;;;;;;;11.67;100.00;99654.41;1718202;81;21015;-73
2022/10/24 08:04:30;;;;;;;27.82;14.18;;;;;;;11.68;100.00;99652.47;1713966;81;21555;-71
2022/10/24 08:07:00;;;;;;;25.32;12.47;;;;;;;11.69;100.00;99653.52;1727524;82;20864;-71
2022/10/24 08:09:30;;;;;;;23.40;11.67;;;;;;;11.71;100.00;99655.95;1706771;82;21453;-76
2022/10/24 08:11:58;;;;;;;33.00;14.53;;;;;;;11.69;100.00;99659.02;1731090;82;21095;-77
2022/10/24 08:14:25;;;;;;;28.55;13.98;;;;;;;11.68;100.00;99664.27;1736535;82;20978;-74
2022/10/24 08:16:54;;;;;;;27.73;14.75;;;;;;;11.67;100.00;99659.09;1742491;81;20951;-71
2022/10/24 08:19:21;;;;;;;32.53;15.93;;;;;;;11.68;100.00;99665.65;1734660;82;20903;-78
2022/10/24 08:21:51;;;;;;;32.50;15.38;;;;;;;11.67;100.00;99664.03;1738463;82;21014;-72
2022/10/24 08:24:21;;;;;;;32.53;14.53;;;;;;;11.65;100.00;99664.11;1728581;81;21219;-69
2022/10/24 08:26:49;;;;;;;31.37;14.95;;;;;;;11.57;100.00;99665.13;1720515;82;21045;-70
2022/10/24 08:29:25;;;;;;;28.27;14.60;;;;;;;11.50;100.00;99666.20;1711760;82;21415;-70
2022/10/24 08:31:57;;;;;;;24.25;14.87;;;;;;;11.48;100.00;99667.64;1697306;82;21010;-72
2022/10/24 08:34:32;;;;;;;27.42;14.30;;;;;;;11.46;100.00;99672.65;1706829;83;20897;-71
2022/10/24 08:37:02;;;;;;;32.05;16.05;;;;;;;11.45;100.00;99663.59;1696806;83;21135;-71
2022/10/24 08:39:37;;;;;;;38.95;17.65;;;;;;;11.45;100.00;99661.41;1680820;84;20900;-71
2022/10/24 08:42:13;;;;;;;39.88;22.30;;;;;;;11.43;100.00;99673.28;1695846;82;21055;-71
2022/10/24 08:44:43;;;;;;;38.85;21.73;;;;;;;11.44;100.00;99666.66;1658155;85;21554;-70
2022/10/24 08:47:38;;;;;;;32.40;19.15;;;;;;;11.47;100.00;99662.70;1668569;84;21521;-69
2022/10/24 08:50:28;;;;;;;30.10;17.98;;;;;;;11.48;100.00;99668.45;1627589;87;20939;-71
2022/10/24 08:53:24;;;;;;;29.87;17.85;;;;;;;11.50;100.00;99668.95;1677530;84;20935;-73
2022/10/24 08:55:54;;;;;;;32.08;18.52;;;;;;;11.52;100.00;99669.44;1653559;85;21055;-72
2022/10/24 08:58:36;;;;;;;31.33;18.15;;;;;;;11.57;100.00;99667.08;1689744;83;21010;-73
2022/10/24 09:01:30;;;;;;;37.58;19.52;;;;;;;11.59;100.00;99664.81;1661750;84;20991;-71
2022/10/24 09:04:02;;;;;;;35.40;18.90;;;;;;;11.59;100.00;99668.94;1690004;83;21169;-73
2022/10/24 09:06:35;;;;;;;;;;;;;;;11.54;100.00;99660.87;1681339;83;21125;-78
2022/10/24 09:09:26;;;;;;;28.05;17.65;;;;;;;11.51;100.00;99672.50;1687640;82;20422;-74
2022/10/24 09:12:05;;;;;;;27.55;16.85;;;;;;;11.51;100.00;99667.00;1708130;83;21519;-71
2022/10/24 09:14:37;;;;;;;35.17;19.37;;;;;;;11.55;100.00;99676.23;1707590;82;21021;-71
2022/10/24 09:17:25;;;;;;;34.18;18.27;;;;;;;11.61;100.00;99675.50;1708868;83;21145;-74
2022/10/24 09:19:55;;;;;;;38.20;19.85;;;;;;;11.65;100.00;99671.79;1692683;84;21007;-73
2022/10/24 09:22:24;;;;;;;30.90;17.02;;;;;;;11.73;100.00;99668.81;1637393;86;21465;-74
2022/10/24 09:25:08;;;;;;;26.95;16.85;;;;;;;11.80;100.00;99665.87;1702275;83;21529;-73
2022/10/24 09:27:39;;;;;;;33.35;18.65;;;;;;;11.82;100.00;99666.92;1692564;82;21042;-70
2022/10/24 09:30:21;;;;;;;30.82;18.07;;;;;;;11.84;100.00;99661.91;1669337;82;41149;-72
2022/10/24 09:32:48;;;;;;;27.05;15.95;;;;;;;11.85;100.00;99659.41;1699555;82;20892;-75
2022/10/24 09:35:22;;;;;;;35.80;17.52;;;;;;;11.89;100.00;99668.08;1684703;83;21055;-75
2022/10/24 09:37:59;;;;;;;27.60;15.30;;;;;;;11.93;100.00;99664.68;1711159;83;21033;-72
2022/10/24 09:40:28;;;;;;;31.97;16.85;;;;;;;11.99;100.00;99662.02;1717975;83;21006;-73
2022/10/24 09:43:20;;;;;;;24.20;16.43;;;;;;;12.06;100.00;99664.54;1687865;84;21264;-75
2022/10/24 09:46:02;;;;;;;27.37;15.95;;;;;;;12.11;100.00;99670.45;1649835;85;21511;-70
2022/10/24 09:48:49;;;;;;;33.40;18.55;;;;;;;12.15;100.00;99676.33;1720066;81;21016;-74
2022/10/24 09:51:23;;;;;;;32.58;18.32;;;;;;;12.17;100.00;99685.08;1697512;83;20861;-71
2022/10/24 09:54:25;;;;;;;30.82;17.62;;;;;;;12.18;100.00;99681.19;1703959;81;20946;-71
2022/10/24 09:57:13;;;;;;;27.17;15.40;;;;;;;12.18;100.00;99689.45;1700446;82;20939;-73
2022/10/24 09:59:51;;;;;;;24.37;15.53;;;;;;;12.18;100.00;99686.69;1713685;82;20888;-71
2022/10/24 10:02:33;;;;;;;29.75;15.60;;;;;;;12.22;100.00;99686.86;1700727;82;20911;-69
2022/10/24 10:05:09;;;;;;;29.60;17.15;;;;;;;12.20;100.00;99694.63;1681435;84;21053;-71
2022/10/24 10:07:47;;;;;;;30.05;17.92;;;;;;;12.16;100.00;99690.90;1747909;81;20860;-73
2022/10/24 10:10:29;;;;;;;32.38;18.35;;;;;;;12.16;100.00;99688.95;1731391;82;22002;-71
2022/10/24 10:13:18;;;;;;;29.10;16.35;;;;;;;12.17;100.00;99683.70;1746859;81;20919;-69
2022/10/24 10:15:56;;;;;;;28.10;14.45;;;;;;;12.21;100.00;99685.23;1714861;82;20971;-69
2022/10/24 10:18:45;;;;;;;30.62;16.95;;;;;;;12.27;100.00;99683.14;1712665;83;20931;-69
2022/10/24 10:21:20;;;;;;;30.97;17.10;;;;;;;12.34;100.00;99674.64;1702989;82;21548;-71
2022/10/24 10:23:54;;;;;;;29.67;16.32;;;;;;;12.39;100.00;99671.72;1715404;81;21355;-71
2022/10/24 10:26:43;;;;;;;24.05;14.55;;;;;;;12.39;100.00;99677.23;1719864;82;20974;-74
2022/10/24 10:29:20;;;;;;;36.17;17.17;;;;;;;12.38;100.00;99674.80;1707028;82;21106;-72
2022/10/24 10:32:10;;;;;;;50.40;18.00;;;;;;;12.38;100.00;99671.48;1705403;82;21022;-71
2022/10/24 10:34:48;;;;;;;37.23;16.77;;;;;;;12.43;100.00;99669.94;1694625;82;21370;-68
2022/10/24 10:37:35;;;;;;;32.30;17.10;;;;;;;12.53;100.00;99668.80;1716804;82;21120;-71
2022/10/24 10:40:25;;;;;;;32.85;16.35;;;;;;;12.59;100.00;99674.95;1725850;82;20942;-68
2022/10/24 10:43:27;;;;;;;32.93;18.67;;;;;;;12.63;100.00;99668.47;1692080;82;20996;-70
2022/10/24 10:46:17;;;;;;;24.43;15.10;;;;;;;12.66;100.00;99660.12;1678702;84;20982;-70
2022/10/24 10:49:10;;;;;;;44.77;17.77;;;;;;;12.64;100.00;99653.56;1675629;82;21026;-69
2022/10/24 10:51:43;;;;;;;36.90;17.65;;;;;;;12.58;100.00;99651.30;1730572;82;21210;-71
2022/10/24 10:54:42;;;;;;;37.23;19.32;;;;;;;12.50;100.00;99650.98;1724502;81;21002;-72
2022/10/24 10:57:35;;;;;;;31.17;18.32;;;;;;;12.52;100.00;99650.09;1728241;82;21648;-68
2022/10/24 11:00:27;;;;;;;35.92;18.23;;;;;;;12.55;100.00;99652.77;1727333;82;21027;-73
2022/10/24 11:03:23;;;;;;;31.75;18.48;;;;;;;12.52;100.00;99640.45;1676451;84;21042;-70
2022/10/24 11:06:51;;;;;;;37.85;18.40;;;;;;;12.51;100.00;99649.04;1650408;84;20990;-69
2022/10/24 11:09:30;;;;;;;55.70;22.15;;;;;;;12.52;100.00;99650.66;1675795;84;21515;-68
2022/10/24 11:12:10;;;;;;;36.60;18.75;;;;;;;12.54;100.00;99647.02;1654427;85;21064;-70
2022/10/24 11:14:48;;;;;;;31.62;17.98;;;;;;;12.53;100.00;99639.32;1718277;82;21062;-69
2022/10/24 11:17:21;;;;;;;32.10;17.62;;;;;;;12.58;100.00;99636.16;1684613;82;21102;-70
2022/10/24 11:20:07;;;;;;;32.33;19.30;;;;;;;12.60;100.00;99634.70;1701285;82;21810;-73
2022/10/24 11:22:45;;;;;;;32.95;17.70;;;;;;;12.63;100.00;99641.49;1706255;82;21031;-69
2022/10/24 11:25:29;;;;;;;34.13;17.30;;;;;;;12.62;100.00;99640.69;1708188;81;20939;-68
2022/10/24 11:28:35;;;;;;;187.47;30.48;;;;;;;12.65;100.00;99644.16;1725071;82;21023;-71
2022/10/24 11:31:23;;;;;;;226.30;34.65;;;;;;;12.68;100.00;99646.83;1729045;81;20950;-71
2022/10/24 11:34:08;;;;;;;31.55;17.45;;;;;;;12.73;100.00;99641.93;1716983;82;22203;-71
2022/10/24 11:36:59;;;;;;;31.02;16.90;;;;;;;12.78;100.00;99645.08;1688616;82;20981;-70
2022/10/24 11:39:51;;;;;;;30.85;17.37;;;;;;;12.83;100.00;99640.77;1721036;82;21703;-69
2022/10/24 11:42:31;;;;;;;28.90;16.82;;;;;;;12.89;100.00;99633.38;1727206;81;21034;-68
2022/10/24 11:45:12;;;;;;;26.90;15.32;;;;;;;12.90;100.00;99625.36;1658834;85;21541;-69
2022/10/24 11:48:17;;;;;;;28.10;14.90;;;;;;;12.86;100.00;99623.02;1636086;86;21163;-70
2022/10/24 11:50:53;;;;;;;;;;;;;;;12.89;100.00;99627.06;1643729;86;21567;-68